createdAt,value
2022-10-29T00:00:57.773Z,58.30
2022-10-29T00:03:26.356Z,58.43
2022-10-29T00:06:06.390Z,58.24
2022-10-29T00:08:36.005Z,58.00
2022-10-29T00:11:12.608Z,58.09
2022-10-29T00:13:40.691Z,58.13
2022-10-29T00:16:14.392Z,58.16
2022-10-29T00:18:41.655Z,58.47
2022-10-29T00:21:15.442Z,58.30
2022-10-29T00:23:43.041Z,58.36
2022-10-29T00:26:11.077Z,58.31
2022-10-29T00:28:38.497Z,58.45
2022-10-29T00:31:18.046Z,58.29
2022-10-29T00:33:46.189Z,58.38
2022-10-29T00:36:16.815Z,58.35
2022-10-29T00:38:44.488Z,58.39
2022-10-29T00:41:16.143Z,58.22
2022-10-29T00:43:52.249Z,58.53
2022-10-29T00:46:35.198Z,58.53
2022-10-29T00:49:03.803Z,58.54
2022-10-29T00:51:32.942Z,58.69
2022-10-29T00:54:08.096Z,58.66
2022-10-29T00:56:58.320Z,58.56
2022-10-29T00:59:26.263Z,58.52
2022-10-29T01:01:54.258Z,58.81
2022-10-29T01:04:23.434Z,58.69
2022-10-29T01:06:52.354Z,58.76
2022-10-29T01:09:19.495Z,58.83
2022-10-29T01:12:22.675Z,58.82
2022-10-29T01:15:20.986Z,58.88
2022-10-29T01:18:20.941Z,58.96
2022-10-29T01:20:54.035Z,59.06
2022-10-29T01:24:07.742Z,58.83
2022-10-29T01:27:39.347Z,58.84
2022-10-29T01:30:15.200Z,58.89
2022-10-29T01:33:06.492Z,58.83
2022-10-29T01:36:05.114Z,58.93
2022-10-29T01:38:57.894Z,58.88
2022-10-29T01:41:56.632Z,58.77
2022-10-29T01:45:02.694Z,58.93
2022-10-29T01:47:40.709Z,58.78
2022-10-29T01:50:14.290Z,58.80
2022-10-29T01:52:43.610Z,58.76
2022-10-29T01:55:15.294Z,58.92
2022-10-29T01:57:42.851Z,58.71
2022-10-29T02:00:18.684Z,58.94
2022-10-29T02:02:58.467Z,58.70
2022-10-29T02:05:45.833Z,58.69
2022-10-29T02:08:20.345Z,58.78
2022-10-29T02:11:15.767Z,58.82
2022-10-29T02:13:53.712Z,58.95
2022-10-29T02:16:25.009Z,58.81
2022-10-29T02:18:52.920Z,58.55
2022-10-29T02:21:21.448Z,58.69
2022-10-29T02:23:48.946Z,58.83
2022-10-29T02:26:16.910Z,58.90
2022-10-29T02:28:44.646Z,58.90
2022-10-29T02:31:12.161Z,59.12
2022-10-29T02:33:39.680Z,59.08
2022-10-29T02:36:07.864Z,58.99
2022-10-29T02:38:35.781Z,58.62
2022-10-29T02:41:03.451Z,58.88
2022-10-29T02:43:31.020Z,58.57
2022-10-29T02:46:31.036Z,58.84
2022-10-29T02:48:58.607Z,59.17
2022-10-29T02:51:26.171Z,59.14
2022-10-29T02:53:53.805Z,58.94
2022-10-29T02:56:21.389Z,58.78
2022-10-29T02:58:48.896Z,58.84
2022-10-29T03:01:16.506Z,58.89
2022-10-29T03:03:44.205Z,58.89
2022-10-29T03:06:16.616Z,59.23
2022-10-29T03:08:45.265Z,59.31
2022-10-29T03:11:13.358Z,59.28
2022-10-29T03:13:40.844Z,59.41
2022-10-29T03:16:08.471Z,59.42
2022-10-29T03:18:36.012Z,59.36
2022-10-29T03:21:03.673Z,59.41
2022-10-29T03:23:31.419Z,59.31
2022-10-29T03:25:59.183Z,59.44
2022-10-29T03:28:27.503Z,59.44
2022-10-29T03:30:55.098Z,59.38
2022-10-29T03:33:22.850Z,59.63
2022-10-29T03:35:50.381Z,59.58
2022-10-29T03:38:17.855Z,59.63
2022-10-29T03:40:45.405Z,59.60
2022-10-29T03:43:12.909Z,59.69
2022-10-29T03:45:40.413Z,59.43
2022-10-29T03:48:08.011Z,59.58
2022-10-29T03:50:35.768Z,59.68
2022-10-29T03:53:03.300Z,59.61
2022-10-29T03:55:30.782Z,59.56
2022-10-29T03:57:58.387Z,59.49
2022-10-29T04:00:26.329Z,59.63
2022-10-29T04:02:54.139Z,59.36
2022-10-29T04:05:21.832Z,59.20
2022-10-29T04:07:49.452Z,59.29
2022-10-29T04:10:17.141Z,59.10
2022-10-29T04:12:48.047Z,59.37
2022-10-29T04:15:16.120Z,59.37
2022-10-29T04:17:43.671Z,59.66
2022-10-29T04:20:21.781Z,59.63
2022-10-29T04:28:58.931Z,59.70
2022-10-29T04:31:26.600Z,59.78
2022-10-29T04:33:54.493Z,59.79
2022-10-29T04:36:22.291Z,59.59
2022-10-29T04:38:50.953Z,59.60
2022-10-29T04:41:18.535Z,59.44
2022-10-29T04:43:46.319Z,59.47
2022-10-29T04:46:13.923Z,59.53
2022-10-29T04:48:41.546Z,59.63
2022-10-29T04:51:22.320Z,59.67
2022-10-29T04:53:53.686Z,59.76
2022-10-29T04:56:21.466Z,59.70
2022-10-29T04:58:52.044Z,59.75
2022-10-29T05:01:20.308Z,59.71
2022-10-29T05:03:48.178Z,59.78
2022-10-29T05:06:15.756Z,59.59
2022-10-29T05:08:43.265Z,59.69
2022-10-29T05:11:10.932Z,59.74
2022-10-29T05:13:38.575Z,60.04
2022-10-29T05:16:06.779Z,59.85
2022-10-29T05:18:33.903Z,60.03
2022-10-29T05:21:04.202Z,60.10
2022-10-29T05:23:32.012Z,59.93
2022-10-29T05:25:59.143Z,59.53
2022-10-29T05:28:29.429Z,59.80
2022-10-29T05:31:00.307Z,60.05
2022-10-29T05:33:27.497Z,60.03
2022-10-29T05:35:54.767Z,59.97
2022-10-29T05:38:21.900Z,60.05
2022-10-29T05:40:49.069Z,59.94
2022-10-29T05:43:17.807Z,60.11
2022-10-29T05:45:45.289Z,60.05
2022-10-29T05:48:14.334Z,60.13
2022-10-29T05:50:41.722Z,60.40
2022-10-29T05:53:14.286Z,60.58
2022-10-29T05:55:42.580Z,60.38
2022-10-29T05:58:14.509Z,60.29
2022-10-29T06:00:44.503Z,60.43
2022-10-29T06:03:18.044Z,60.51
2022-10-29T06:05:48.391Z,60.43
2022-10-29T06:08:16.159Z,60.30
2022-10-29T06:10:43.455Z,60.06
2022-10-29T06:13:22.410Z,60.30
2022-10-29T06:15:50.848Z,60.51
2022-10-29T06:18:18.120Z,60.42
2022-10-29T06:20:45.372Z,60.38
2022-10-29T06:23:12.596Z,60.41
2022-10-29T06:25:39.869Z,60.58
2022-10-29T06:28:11.071Z,60.61
2022-10-29T06:30:38.551Z,60.66
2022-10-29T06:33:05.765Z,60.63
2022-10-29T06:38:04.079Z,60.82
2022-10-29T06:40:33.572Z,60.69
2022-10-29T06:43:03.946Z,60.69
2022-10-29T06:45:34.121Z,60.76
2022-10-29T06:48:02.190Z,60.85
2022-10-29T06:50:29.561Z,61.16
2022-10-29T06:53:07.592Z,61.23
2022-10-29T06:55:35.543Z,61.27
2022-10-29T06:58:06.342Z,61.25
2022-10-29T07:00:35.098Z,61.05
2022-10-29T07:03:03.090Z,61.30
2022-10-29T07:05:31.017Z,61.28
2022-10-29T07:08:00.595Z,61.52
2022-10-29T07:10:31.321Z,62.25
2022-10-29T07:12:59.593Z,62.65
2022-10-29T07:15:30.834Z,62.90
2022-10-29T07:18:05.793Z,62.79
2022-10-29T07:20:36.860Z,62.56
2022-10-29T07:23:04.643Z,62.31
2022-10-29T07:25:39.520Z,62.23
2022-10-29T07:28:19.566Z,62.31
2022-10-29T07:30:47.469Z,62.59
2022-10-29T07:33:15.229Z,62.54
2022-10-29T07:35:43.789Z,62.39
2022-10-29T07:38:12.918Z,62.59
2022-10-29T07:40:47.657Z,62.68
2022-10-29T07:43:15.486Z,62.73
2022-10-29T07:45:48.347Z,62.86
2022-10-29T07:48:16.028Z,63.06
2022-10-29T07:50:43.283Z,63.12
2022-10-29T07:53:10.995Z,63.46
2022-10-29T07:55:38.756Z,63.55
2022-10-29T07:58:11.229Z,63.40
2022-10-29T08:00:41.265Z,63.49
2022-10-29T08:03:10.258Z,63.53
2022-10-29T08:05:37.461Z,63.79
2022-10-29T08:08:05.601Z,63.91
2022-10-29T08:10:35.866Z,64.02
2022-10-29T08:13:05.963Z,64.05
2022-10-29T08:15:38.594Z,64.11
2022-10-29T08:18:17.568Z,64.19
2022-10-29T08:20:45.376Z,64.12
2022-10-29T08:23:13.750Z,64.15
2022-10-29T08:25:42.233Z,64.25
2022-10-29T08:28:13.224Z,64.77
2022-10-29T08:30:42.276Z,64.63
2022-10-29T08:33:10.528Z,64.13
2022-10-29T08:35:37.688Z,63.59
2022-10-29T08:38:04.804Z,62.96
2022-10-29T08:40:46.468Z,62.46
2022-10-29T08:43:58.656Z,61.44
2022-10-29T08:46:46.314Z,61.35
2022-10-29T08:49:35.983Z,61.64
2022-10-29T08:52:14.753Z,61.65
2022-10-29T08:54:48.251Z,62.31
2022-10-29T08:57:19.242Z,61.80
2022-10-29T09:00:02.601Z,61.78
2022-10-29T09:02:29.960Z,62.15
2022-10-29T09:04:58.400Z,62.07
2022-10-29T09:08:12.812Z,61.19
2022-10-29T09:11:07.751Z,60.81
2022-10-29T09:13:51.550Z,61.05
2022-10-29T09:16:41.645Z,60.24
2022-10-29T09:19:26.796Z,60.42
2022-10-29T09:22:17.536Z,60.00
2022-10-29T09:25:08.257Z,58.88
2022-10-29T09:28:13.481Z,58.29
2022-10-29T09:31:42.063Z,59.62
2022-10-29T09:34:34.421Z,59.16
2022-10-29T09:37:02.467Z,59.29
2022-10-29T09:39:38.879Z,59.08
2022-10-29T09:42:22.026Z,58.77
2022-10-29T09:45:03.134Z,58.70
2022-10-29T09:48:25.152Z,58.42
2022-10-29T09:51:19.550Z,58.82
2022-10-29T09:53:46.835Z,58.81
2022-10-29T09:56:14.076Z,58.22
2022-10-29T09:58:52.345Z,57.34
2022-10-29T10:01:19.659Z,57.56
2022-10-29T10:03:55.628Z,57.39
2022-10-29T10:06:22.807Z,56.32
2022-10-29T10:09:06.420Z,56.78
2022-10-29T10:11:42.224Z,55.23
2022-10-29T10:14:22.643Z,53.95
2022-10-29T10:17:00.117Z,53.34
2022-10-29T10:19:31.505Z,53.13
2022-10-29T10:22:02.169Z,52.77
2022-10-29T10:24:35.174Z,52.44
2022-10-29T10:27:30.325Z,51.39
2022-10-29T10:30:14.717Z,51.56
2022-10-29T10:32:42.157Z,52.45
2022-10-29T10:35:30.921Z,52.92
2022-10-29T10:37:58.618Z,52.74
2022-10-29T10:40:26.490Z,52.48
2022-10-29T10:42:55.786Z,53.91
2022-10-29T10:45:40.631Z,53.36
2022-10-29T10:48:16.205Z,53.73
2022-10-29T10:50:43.537Z,54.01
2022-10-29T10:53:22.383Z,52.60
2022-10-29T10:55:56.666Z,53.31
2022-10-29T10:58:45.424Z,53.40
2022-10-29T11:01:43.713Z,52.74
2022-10-29T11:04:34.535Z,52.63
2022-10-29T11:07:08.281Z,51.87
2022-10-29T11:09:46.670Z,51.63
2022-10-29T11:12:44.882Z,51.89
2022-10-29T11:15:41.086Z,51.55
2022-10-29T11:18:41.315Z,50.30
2022-10-29T11:21:21.317Z,48.08
2022-10-29T11:24:05.402Z,45.22
2022-10-29T11:26:41.615Z,42.27
2022-10-29T11:29:42.170Z,39.50
2022-10-29T11:32:15.205Z,36.79
2022-10-29T11:35:11.268Z,35.18
2022-10-29T11:37:53.784Z,33.82
2022-10-29T11:41:09.716Z,32.18
2022-10-29T11:43:37.010Z,31.72
2022-10-29T11:46:31.688Z,31.70
2022-10-29T11:49:24.515Z,31.76
2022-10-29T11:52:22.561Z,30.73
2022-10-29T11:54:59.730Z,30.07
2022-10-29T11:57:47.831Z,29.62
2022-10-29T12:00:23.742Z,29.97
2022-10-29T12:03:12.395Z,30.20
2022-10-29T12:06:15.058Z,30.62
2022-10-29T12:09:37.448Z,30.30
2022-10-29T12:12:40.509Z,31.39
2022-10-29T12:15:32.026Z,31.39
2022-10-29T12:18:25.994Z,31.43
2022-10-29T12:21:26.701Z,31.99
2022-10-29T12:23:53.939Z,31.93
2022-10-29T12:26:36.140Z,32.00
2022-10-29T12:29:12.643Z,31.57
2022-10-29T12:31:44.599Z,31.50
2022-10-29T12:34:47.875Z,32.01
2022-10-29T12:37:48.171Z,32.10
2022-10-29T12:40:40.618Z,33.17
2022-10-29T12:43:29.079Z,34.11
2022-10-29T12:46:31.565Z,36.05
2022-10-29T12:49:40.140Z,37.78
2022-10-29T12:52:50.087Z,39.08
2022-10-29T12:55:23.528Z,40.15
2022-10-29T12:57:51.109Z,40.65
2022-10-29T13:00:45.899Z,41.96
2022-10-29T13:03:58.568Z,43.17
2022-10-29T13:06:45.330Z,43.91
2022-10-29T13:09:29.720Z,44.41
2022-10-29T13:12:13.687Z,45.40
2022-10-29T13:14:54.315Z,46.01
2022-10-29T13:17:41.901Z,46.34
2022-10-29T13:20:20.885Z,47.06
2022-10-29T13:22:52.421Z,47.76
2022-10-29T13:25:37.932Z,48.30
2022-10-29T13:28:08.075Z,48.74
2022-10-29T13:30:39.495Z,48.96
2022-10-29T13:33:28.510Z,49.25
2022-10-29T13:36:25.752Z,49.55
2022-10-29T13:39:05.749Z,50.06
2022-10-29T13:41:46.406Z,50.78
2022-10-29T13:44:29.183Z,51.00
2022-10-29T13:47:04.530Z,50.91
2022-10-29T13:49:42.374Z,51.03
2022-10-29T13:52:09.747Z,50.62
2022-10-29T13:55:06.366Z,51.32
2022-10-29T13:57:46.874Z,51.73
2022-10-29T14:00:14.203Z,51.77
2022-10-29T14:02:47.033Z,51.86
2022-10-29T14:05:40.436Z,51.59
2022-10-29T14:08:13.721Z,51.58
2022-10-29T14:10:41.059Z,51.12
2022-10-29T14:13:14.023Z,52.13
2022-10-29T14:16:06.960Z,52.59
2022-10-29T14:18:37.774Z,51.71
2022-10-29T14:21:15.502Z,51.99
2022-10-29T14:24:02.011Z,52.58
2022-10-29T14:26:33.434Z,52.34
2022-10-29T14:29:23.805Z,52.29
2022-10-29T14:32:11.523Z,52.12
2022-10-29T14:34:39.476Z,52.19
2022-10-29T14:37:37.363Z,52.46
2022-10-29T14:40:28.229Z,52.99
2022-10-29T14:42:57.477Z,53.09
2022-10-29T14:45:31.059Z,53.48
2022-10-29T14:48:02.080Z,53.72
2022-10-29T14:50:31.404Z,53.99
2022-10-29T14:53:05.533Z,54.13
2022-10-29T14:55:40.465Z,54.32
2022-10-29T14:58:16.509Z,54.38
2022-10-29T15:01:07.262Z,54.51
2022-10-29T15:03:36.261Z,54.33
2022-10-29T15:06:19.549Z,54.58
2022-10-29T15:09:02.312Z,54.82
2022-10-29T15:11:38.032Z,55.07
2022-10-29T15:14:36.290Z,55.52
2022-10-29T15:17:16.479Z,55.77
2022-10-29T15:19:46.789Z,55.92
2022-10-29T15:22:37.381Z,55.77
2022-10-29T15:25:15.599Z,55.92
2022-10-29T15:27:42.872Z,55.91
2022-10-29T15:30:28.306Z,56.22
2022-10-29T15:33:00.857Z,56.23
2022-10-29T15:35:28.752Z,56.49
2022-10-29T15:37:56.559Z,56.34
2022-10-29T15:40:25.812Z,56.44
2022-10-29T15:42:54.813Z,56.47
2022-10-29T15:45:26.515Z,56.45
2022-10-29T15:48:17.865Z,56.63
2022-10-29T15:50:46.129Z,56.69
2022-10-29T15:53:16.729Z,56.98
2022-10-29T15:55:44.593Z,56.84
2022-10-29T15:58:19.558Z,56.65
2022-10-29T16:00:46.845Z,56.46
2022-10-29T16:03:21.001Z,56.22
2022-10-29T16:05:59.225Z,56.00
2022-10-29T16:08:40.822Z,55.71
2022-10-29T16:11:16.788Z,55.68
2022-10-29T16:13:43.984Z,55.69
2022-10-29T16:16:15.132Z,55.81
2022-10-29T16:18:42.237Z,55.66
2022-10-29T16:21:14.319Z,55.58
2022-10-29T16:23:41.874Z,55.72
2022-10-29T16:26:21.309Z,55.82
2022-10-29T16:28:48.616Z,55.95
2022-10-29T16:31:28.863Z,56.21
2022-10-29T16:34:03.059Z,55.97
2022-10-29T16:36:30.420Z,56.00
2022-10-29T16:38:57.800Z,56.22
2022-10-29T16:41:25.019Z,55.95
2022-10-29T16:43:52.291Z,55.92
2022-10-29T16:46:19.863Z,55.93
2022-10-29T16:48:46.941Z,56.00
2022-10-29T16:51:14.219Z,55.97
2022-10-29T16:53:41.321Z,56.02
2022-10-29T16:56:08.740Z,55.87
2022-10-29T16:58:35.995Z,55.63
2022-10-29T17:01:08.191Z,55.62
2022-10-29T17:03:35.977Z,55.77
2022-10-29T17:06:09.777Z,55.78
2022-10-29T17:08:38.183Z,55.76
2022-10-29T17:11:07.261Z,55.75
2022-10-29T17:13:34.990Z,55.78
2022-10-29T17:16:12.236Z,55.81
2022-10-29T17:18:39.457Z,55.73
2022-10-29T17:21:06.676Z,55.51
2022-10-29T17:23:34.272Z,55.51
2022-10-29T17:26:01.432Z,55.58
2022-10-29T17:28:28.922Z,55.91
2022-10-29T17:30:56.109Z,55.78
2022-10-29T17:33:23.336Z,56.00
2022-10-29T17:35:59.940Z,55.70
2022-10-29T17:38:27.525Z,55.71
2022-10-29T17:40:54.623Z,55.86
2022-10-29T17:43:22.166Z,55.98
2022-10-29T17:45:49.377Z,56.00
2022-10-29T17:48:18.749Z,55.81
2022-10-29T17:50:56.901Z,55.72
2022-10-29T17:53:26.607Z,55.69
2022-10-29T17:55:58.240Z,55.92
2022-10-29T17:58:26.298Z,55.77
2022-10-29T18:00:54.351Z,55.79
2022-10-29T18:03:25.728Z,55.93
2022-10-29T18:05:53.284Z,55.94
2022-10-29T18:08:20.834Z,55.89
2022-10-29T18:10:48.365Z,55.83
2022-10-29T18:13:15.930Z,55.69
2022-10-29T18:15:43.406Z,55.76
2022-10-29T18:18:10.981Z,55.73
2022-10-29T18:20:38.511Z,55.48
2022-10-29T18:23:06.187Z,55.69
2022-10-29T18:25:33.740Z,55.51
2022-10-29T18:28:01.343Z,55.36
2022-10-29T18:30:28.797Z,55.57
2022-10-29T18:32:56.935Z,55.54
2022-10-29T18:35:24.800Z,55.38
2022-10-29T18:37:52.309Z,55.35
2022-10-29T18:40:19.879Z,55.45
2022-10-29T18:42:47.462Z,55.52
2022-10-29T18:45:15.050Z,55.61
2022-10-29T18:47:42.178Z,55.50
2022-10-29T18:50:09.563Z,55.44
2022-10-29T18:52:36.770Z,55.58
2022-10-29T18:55:04.285Z,55.73
2022-10-29T18:57:31.557Z,55.76
2022-10-29T18:59:58.674Z,55.82
2022-10-29T19:02:25.971Z,55.60
2022-10-29T19:04:53.197Z,55.65
2022-10-29T19:07:20.369Z,56.09
2022-10-29T19:09:48.208Z,55.68
2022-10-29T19:12:15.399Z,55.69
2022-10-29T19:14:42.524Z,55.67
2022-10-29T19:17:09.716Z,55.70
2022-10-29T19:19:36.966Z,55.60
2022-10-29T19:22:04.087Z,55.54
2022-10-29T19:24:31.667Z,55.79
2022-10-29T19:26:59.497Z,55.68
2022-10-29T19:29:27.239Z,55.65
2022-10-29T19:31:55.002Z,55.72
2022-10-29T19:34:22.458Z,55.66
2022-10-29T19:36:49.610Z,55.72
2022-10-29T19:39:16.875Z,55.90
2022-10-29T19:41:44.109Z,55.87
2022-10-29T19:44:11.413Z,56.15
2022-10-29T19:46:38.609Z,56.13
2022-10-29T19:49:05.991Z,56.12
2022-10-29T19:51:33.203Z,56.04
2022-10-29T19:54:00.608Z,56.34
2022-10-29T19:56:27.956Z,56.23
2022-10-29T19:58:55.152Z,56.40
2022-10-29T20:01:22.636Z,56.09
2022-10-29T20:03:50.088Z,56.10
2022-10-29T20:06:17.655Z,56.07
2022-10-29T20:08:45.449Z,55.97
2022-10-29T20:11:12.754Z,56.07
2022-10-29T20:13:40.148Z,56.06
2022-10-29T20:16:18.000Z,56.40
2022-10-29T20:18:46.210Z,56.36
2022-10-29T20:21:14.328Z,56.33
2022-10-29T20:23:42.360Z,56.27
2022-10-29T20:26:09.737Z,56.21
2022-10-29T20:28:37.611Z,56.07
2022-10-29T20:31:18.505Z,56.24
2022-10-29T20:33:53.958Z,56.30
2022-10-29T20:36:22.560Z,56.17
2022-10-29T20:38:51.848Z,56.10
2022-10-29T20:41:20.561Z,56.26
2022-10-29T20:43:53.980Z,56.32
2022-10-29T20:46:23.145Z,56.09
2022-10-29T20:48:50.860Z,55.96
2022-10-29T20:51:18.483Z,56.28
2022-10-29T20:53:45.628Z,56.28
2022-10-29T20:56:16.018Z,56.21
2022-10-29T20:58:44.433Z,56.43
2022-10-29T21:01:16.847Z,56.39
2022-10-29T21:03:45.350Z,56.25
2022-10-29T21:06:17.034Z,56.29
2022-10-29T21:08:47.178Z,56.09
2022-10-29T21:11:16.206Z,56.12
2022-10-29T21:13:43.867Z,56.31
2022-10-29T21:16:28.870Z,56.24
2022-10-29T21:18:59.799Z,56.25
2022-10-29T21:21:29.313Z,56.08
2022-10-29T21:23:59.643Z,56.14
2022-10-29T21:26:28.543Z,56.35
2022-10-29T21:28:55.917Z,56.49
2022-10-29T21:31:24.301Z,56.32
2022-10-29T21:33:54.208Z,56.48
2022-10-29T21:36:22.570Z,56.39
2022-10-29T21:38:50.265Z,56.40
2022-10-29T21:41:17.751Z,56.56
2022-10-29T21:43:45.142Z,56.52
2022-10-29T21:46:12.488Z,56.49
2022-10-29T21:48:39.659Z,56.46
2022-10-29T21:51:11.294Z,56.53
2022-10-29T21:53:38.605Z,56.58
2022-10-29T21:56:09.896Z,56.30
2022-10-29T21:58:37.078Z,56.54
2022-10-29T22:01:14.109Z,56.38
2022-10-29T22:03:44.631Z,56.46
2022-10-29T22:06:16.910Z,56.66
2022-10-29T22:08:46.193Z,56.69
2022-10-29T22:11:15.413Z,56.56
2022-10-29T22:13:42.789Z,56.73
2022-10-29T22:16:11.386Z,56.73
2022-10-29T22:18:39.999Z,56.81
2022-10-29T22:21:20.083Z,56.75
2022-10-29T22:23:53.907Z,56.72
2022-10-29T22:26:25.242Z,56.81
2022-10-29T22:28:52.733Z,56.78
2022-10-29T22:31:22.064Z,56.72
2022-10-29T22:33:49.519Z,56.62
2022-10-29T22:36:23.333Z,56.59
2022-10-29T22:38:59.972Z,56.70
2022-10-29T22:41:29.491Z,56.69
2022-10-29T22:43:58.144Z,56.78
2022-10-29T22:46:27.335Z,56.61
2022-10-29T22:48:55.148Z,56.69
2022-10-29T22:51:26.361Z,56.71
2022-10-29T22:53:54.526Z,56.77
2022-10-29T22:56:29.327Z,56.93
2022-10-29T22:58:57.284Z,56.82
2022-10-29T23:01:28.568Z,56.77
2022-10-29T23:03:57.621Z,57.01
2022-10-29T23:06:26.678Z,57.08
2022-10-29T23:08:57.436Z,57.07
2022-10-29T23:11:28.379Z,57.10
2022-10-29T23:14:00.095Z,57.42
2022-10-29T23:16:31.319Z,57.46
2022-10-29T23:19:02.903Z,57.40
2022-10-29T23:21:30.809Z,57.53
2022-10-29T23:23:58.319Z,57.60
2022-10-29T23:26:26.389Z,57.33
2022-10-29T23:28:53.764Z,57.29
2022-10-29T23:31:25.399Z,57.35
2022-10-29T23:33:56.094Z,57.45
2022-10-29T23:36:25.683Z,57.44
2022-10-29T23:39:01.278Z,57.35
2022-10-29T23:41:31.327Z,57.43
2022-10-29T23:43:59.147Z,57.36
2022-10-29T23:46:26.727Z,57.24
2022-10-29T23:48:53.971Z,57.25
2022-10-29T23:51:21.274Z,57.32
2022-10-29T23:53:50.499Z,57.24
2022-10-29T23:56:20.529Z,57.16
2022-10-29T23:58:47.806Z,57.24
